createdAt,value
2022-12-01T00:01:02.528Z,-3.63
2022-12-01T00:03:32.452Z,-3.67
2022-12-01T00:06:06.610Z,-3.71
2022-12-01T00:08:33.756Z,-3.75
2022-12-01T00:11:08.617Z,-3.76
2022-12-01T00:13:35.464Z,-3.80
2022-12-01T00:16:16.494Z,-3.82
2022-12-01T00:18:43.306Z,-3.84
2022-12-01T00:21:16.997Z,-3.85
2022-12-01T00:23:49.593Z,-3.87
2022-12-01T00:26:16.813Z,-3.88
2022-12-01T00:28:43.470Z,-3.91
2022-12-01T00:31:10.729Z,-3.92
2022-12-01T00:33:37.447Z,-3.93
2022-12-01T00:36:04.505Z,-3.95
2022-12-01T00:38:31.497Z,-3.96
2022-12-01T00:40:58.117Z,-3.96
2022-12-01T00:43:25.054Z,-3.96
2022-12-01T00:45:51.732Z,-3.96
2022-12-01T00:48:19.451Z,-3.98
2022-12-01T00:50:46.085Z,-3.99
2022-12-01T00:53:12.808Z,-4.02
2022-12-01T00:55:40.344Z,-4.05
2022-12-01T00:58:07.591Z,-4.09
2022-12-01T01:00:34.364Z,-4.12
2022-12-01T01:03:01.418Z,-4.15
2022-12-01T01:05:28.089Z,-4.21
2022-12-01T01:07:54.827Z,-4.25
2022-12-01T01:10:22.718Z,-4.29
2022-12-01T01:12:52.066Z,-4.34
2022-12-01T01:15:18.749Z,-4.39
2022-12-01T01:17:45.394Z,-4.44
2022-12-01T01:20:12.472Z,-4.50
2022-12-01T01:22:39.116Z,-4.55
2022-12-01T01:25:06.223Z,-4.60
2022-12-01T01:27:34.419Z,-4.63
2022-12-01T01:30:01.049Z,-4.66
2022-12-01T01:32:27.695Z,-4.70
2022-12-01T01:34:54.371Z,-4.73
2022-12-01T01:37:21.101Z,-4.76
2022-12-01T01:39:47.985Z,-4.80
2022-12-01T01:42:14.816Z,-4.84
2022-12-01T01:44:54.723Z,-4.88
2022-12-01T01:47:26.982Z,-4.93
2022-12-01T01:49:54.617Z,-4.99
2022-12-01T01:52:21.304Z,-5.03
2022-12-01T01:54:49.106Z,-5.07
2022-12-01T01:57:17.976Z,-5.13
2022-12-01T01:59:47.275Z,-5.18
2022-12-01T02:02:14.213Z,-5.23
2022-12-01T02:04:44.277Z,-5.26
2022-12-01T02:07:11.840Z,-5.29
2022-12-01T02:09:38.492Z,-5.32
2022-12-01T02:12:14.134Z,-5.35
2022-12-01T02:14:57.856Z,-5.38
2022-12-01T02:17:40.247Z,-5.44
2022-12-01T02:20:35.815Z,-5.49
2022-12-01T02:23:36.030Z,-5.51
2022-12-01T02:26:36.506Z,-5.55
2022-12-01T02:29:46.747Z,-5.59
2022-12-01T02:32:24.053Z,-5.64
2022-12-01T02:34:59.603Z,-5.68
2022-12-01T02:37:45.043Z,-5.72
2022-12-01T02:40:17.810Z,-5.74
2022-12-01T02:42:51.106Z,-5.76
2022-12-01T02:45:23.604Z,-5.79
2022-12-01T08:55:08.301Z,-2.46
2022-12-01T08:57:37.687Z,-2.34
2022-12-01T09:00:04.845Z,-2.15
2022-12-01T09:02:31.634Z,-1.98
2022-12-01T09:04:58.129Z,-1.80
2022-12-01T09:07:26.806Z,-1.58
2022-12-01T09:09:54.196Z,-1.38
2022-12-01T09:12:21.579Z,-1.24
2022-12-01T09:14:48.975Z,-1.06
2022-12-01T09:17:16.124Z,-0.86
2022-12-01T09:19:42.957Z,-0.71
2022-12-01T09:22:09.939Z,-0.57
2022-12-01T09:24:37.456Z,-0.47
2022-12-01T09:27:04.215Z,-0.40
2022-12-01T09:29:31.493Z,-0.35
2022-12-01T09:31:58.398Z,-0.25
2022-12-01T09:34:25.185Z,-0.15
2022-12-01T09:36:54.487Z,-0.13
2022-12-01T09:39:20.949Z,-0.17
2022-12-01T09:41:57.373Z,-0.13
2022-12-01T09:44:33.047Z,-0.07
2022-12-01T09:47:02.610Z,-0.02
2022-12-01T09:49:41.922Z,0.02
2022-12-01T09:52:14.311Z,0.06
2022-12-01T09:54:40.979Z,0.06
2022-12-01T09:57:15.161Z,-0.07
2022-12-01T09:59:42.794Z,-0.19
2022-12-01T10:02:23.968Z,-0.28
2022-12-01T10:04:51.414Z,-0.30
2022-12-01T10:07:24.049Z,-0.34
2022-12-01T10:10:22.512Z,-0.37
2022-12-01T10:12:49.534Z,-0.30
2022-12-01T10:15:24.676Z,-0.26
2022-12-01T10:17:55.152Z,-0.24
2022-12-01T10:20:41.790Z,-0.17
2022-12-01T10:23:18.093Z,-0.07
2022-12-01T10:25:58.651Z,0.01
2022-12-01T10:28:44.074Z,0.10
2022-12-01T10:31:19.680Z,0.14
2022-12-01T10:33:56.335Z,0.17
2022-12-01T10:36:22.817Z,0.21
2022-12-01T10:38:49.279Z,0.24
2022-12-01T10:41:15.675Z,0.23
2022-12-01T10:43:45.112Z,0.23
2022-12-01T10:46:24.456Z,0.20
2022-12-01T10:48:55.479Z,0.19
2022-12-01T10:51:22.489Z,0.24
2022-12-01T10:53:49.039Z,0.25
2022-12-01T15:38:15.661Z,-2.22
2022-12-01T15:41:13.335Z,-2.19
2022-12-01T15:43:38.944Z,-2.11
2022-12-01T15:46:14.362Z,-2.01
2022-12-01T15:48:41.642Z,-1.91
2022-12-01T15:51:20.252Z,-1.82
2022-12-01T15:53:51.263Z,-1.71
2022-12-01T15:56:25.252Z,-1.59
2022-12-01T15:58:51.874Z,-1.47
2022-12-01T16:01:19.723Z,-1.37
2022-12-01T16:03:53.032Z,-1.26
2022-12-01T16:06:19.840Z,-1.18
2022-12-01T16:09:28.251Z,-1.13
2022-12-01T16:12:09.845Z,-1.11
2022-12-01T16:14:36.591Z,-1.10
2022-12-01T16:17:03.997Z,-1.11
2022-12-01T16:19:31.348Z,-1.09
2022-12-01T16:22:10.341Z,-1.08
2022-12-01T16:24:51.238Z,-1.10
2022-12-01T16:27:23.303Z,-1.11
2022-12-01T16:29:57.739Z,-1.12
2022-12-01T16:32:38.295Z,-1.10
2022-12-01T16:35:06.546Z,-1.07
2022-12-01T16:37:33.266Z,-1.05
2022-12-01T16:40:00.088Z,-1.01
2022-12-01T16:42:27.193Z,-1.00
2022-12-01T16:44:54.166Z,-1.00
2022-12-01T16:47:23.037Z,-0.99
2022-12-01T16:49:49.951Z,-0.97
2022-12-01T16:52:42.975Z,-0.93
2022-12-01T16:55:03.577Z,-0.88
2022-12-01T16:57:30.210Z,-0.86
2022-12-01T16:59:56.877Z,-0.83
2022-12-01T17:02:23.569Z,-0.81
2022-12-01T17:04:50.419Z,-0.79
2022-12-01T17:07:17.273Z,-0.76
2022-12-01T17:09:44.043Z,-0.74
2022-12-01T17:12:10.680Z,-0.73
2022-12-01T17:14:37.452Z,-0.73
2022-12-01T17:17:04.131Z,-0.77
2022-12-01T17:19:30.821Z,-0.79
2022-12-01T17:21:57.460Z,-0.80
2022-12-01T17:24:25.937Z,-0.82
2022-12-01T17:26:52.606Z,-0.86
2022-12-01T17:29:19.423Z,-0.91
2022-12-01T17:31:46.209Z,-0.95
2022-12-01T17:34:15.742Z,-1.00
2022-12-01T17:36:44.724Z,-1.04
2022-12-01T17:39:11.427Z,-1.09
2022-12-01T17:41:40.846Z,-1.15
2022-12-01T17:44:07.482Z,-1.20
2022-12-01T17:46:35.768Z,-1.26
2022-12-01T17:49:08.627Z,-1.32
2022-12-01T17:51:36.640Z,-1.38
2022-12-01T17:54:03.325Z,-1.44
2022-12-01T17:56:29.990Z,-1.48
2022-12-01T17:58:56.660Z,-1.54
2022-12-01T18:01:29.766Z,-1.61
2022-12-01T18:03:57.173Z,-1.64
2022-12-01T18:06:25.602Z,-1.68
2022-12-01T18:08:53.157Z,-1.72
2022-12-01T18:11:20.417Z,-1.74
2022-12-01T18:13:48.575Z,-1.76
2022-12-01T18:16:26.745Z,-1.80
2022-12-01T18:18:53.659Z,-1.83
2022-12-01T18:21:22.571Z,-1.86
2022-12-01T18:24:00.008Z,-1.89
2022-12-01T18:26:27.740Z,-1.93
2022-12-01T18:29:08.031Z,-1.95
2022-12-01T18:31:34.793Z,-1.99
2022-12-01T18:34:05.082Z,-2.02
2022-12-01T18:36:33.050Z,-2.04
2022-12-01T18:39:00.560Z,-2.08
2022-12-01T22:57:53.286Z,-4.97
2022-12-01T23:00:22.133Z,-4.93
2022-12-01T23:02:49.744Z,-4.83
2022-12-01T23:05:31.867Z,-4.71
2022-12-01T23:07:58.605Z,-4.56
2022-12-01T23:10:28.640Z,-4.40
2022-12-01T23:12:55.483Z,-4.25
2022-12-01T23:15:36.371Z,-4.11
2022-12-01T23:18:24.652Z,-3.97
2022-12-01T23:20:56.112Z,-3.81
2022-12-01T23:23:27.903Z,-3.66
2022-12-01T23:25:54.639Z,-3.53
2022-12-01T23:28:21.259Z,-3.41
2022-12-01T23:30:49.542Z,-3.29
2022-12-01T23:33:29.700Z,-3.19
2022-12-01T23:36:00.909Z,-3.09
2022-12-01T23:38:42.298Z,-2.99
2022-12-01T23:41:27.749Z,-2.88
2022-12-01T23:43:55.517Z,-2.78
2022-12-01T23:46:23.357Z,-2.73
2022-12-01T23:49:12.119Z,-2.69
2022-12-01T23:51:40.839Z,-2.64
2022-12-01T23:54:16.613Z,-2.60
2022-12-01T23:56:43.265Z,-2.55
2022-12-01T23:59:12.036Z,-2.51
